sensor_id;sensor_type;location;lat;lon;timestamp;P1;durP1;ratioP1;P2;durP2;ratioP2
37907;SDS011;23740;51.550;6.846;2023-09-19T00:02:02;6.43;;;1.70;;
37907;SDS011;23740;51.550;6.846;2023-09-19T00:04:33;3.30;;;1.75;;
37907;SDS011;23740;51.550;6.846;2023-09-19T00:07:01;7.65;;;2.25;;
37907;SDS011;23740;51.550;6.846;2023-09-19T00:09:29;7.88;;;1.88;;
37907;SDS011;23740;51.550;6.846;2023-09-19T00:11:57;4.13;;;1.77;;
37907;SDS011;23740;51.550;6.846;2023-09-19T00:14:25;3.70;;;1.88;;
37907;SDS011;23740;51.550;6.846;2023-09-19T00:16:53;4.50;;;1.98;;
37907;SDS011;23740;51.550;6.846;2023-09-19T00:19:22;5.60;;;2.17;;
37907;SDS011;23740;51.550;6.846;2023-09-19T00:21:51;2.65;;;1.38;;
37907;SDS011;23740;51.550;6.846;2023-09-19T00:24:19;4.45;;;1.67;;
37907;SDS011;23740;51.550;6.846;2023-09-19T00:26:49;3.67;;;1.52;;
37907;SDS011;23740;51.550;6.846;2023-09-19T00:29:17;4.45;;;1.40;;
37907;SDS011;23740;51.550;6.846;2023-09-19T00:31:46;5.30;;;1.40;;
37907;SDS011;23740;51.550;6.846;2023-09-19T00:34:15;3.78;;;1.67;;
37907;SDS011;23740;51.550;6.846;2023-09-19T00:36:44;4.15;;;1.40;;
37907;SDS011;23740;51.550;6.846;2023-09-19T00:39:12;8.18;;;2.00;;
37907;SDS011;23740;51.550;6.846;2023-09-19T00:41:39;3.40;;;1.42;;
37907;SDS011;23740;51.550;6.846;2023-09-19T00:44:11;5.32;;;1.58;;
37907;SDS011;23740;51.550;6.846;2023-09-19T00:46:38;4.38;;;1.42;;
37907;SDS011;23740;51.550;6.846;2023-09-19T00:49:07;6.97;;;1.90;;
37907;SDS011;23740;51.550;6.846;2023-09-19T00:51:35;6.05;;;2.08;;
37907;SDS011;23740;51.550;6.846;2023-09-19T00:54:05;6.72;;;1.98;;
37907;SDS011;23740;51.550;6.846;2023-09-19T00:56:34;4.85;;;2.05;;
37907;SDS011;23740;51.550;6.846;2023-09-19T00:59:04;4.88;;;2.15;;
37907;SDS011;23740;51.550;6.846;2023-09-19T01:01:32;3.15;;;1.40;;
37907;SDS011;23740;51.550;6.846;2023-09-19T01:04:00;7.28;;;1.58;;
37907;SDS011;23740;51.550;6.846;2023-09-19T01:06:28;6.32;;;1.52;;
37907;SDS011;23740;51.550;6.846;2023-09-19T01:08:57;6.22;;;2.13;;
37907;SDS011;23740;51.550;6.846;2023-09-19T01:11:28;3.30;;;1.35;;
37907;SDS011;23740;51.550;6.846;2023-09-19T01:14:02;5.70;;;2.08;;
37907;SDS011;23740;51.550;6.846;2023-09-19T01:16:42;7.25;;;2.33;;
37907;SDS011;23740;51.550;6.846;2023-09-19T01:19:26;8.77;;;2.63;;
37907;SDS011;23740;51.550;6.846;2023-09-19T01:22:07;5.97;;;1.70;;
37907;SDS011;23740;51.550;6.846;2023-09-19T01:24:54;5.95;;;1.77;;
37907;SDS011;23740;51.550;6.846;2023-09-19T01:27:49;7.18;;;2.15;;
37907;SDS011;23740;51.550;6.846;2023-09-19T01:30:31;7.43;;;2.08;;
37907;SDS011;23740;51.550;6.846;2023-09-19T01:33:00;5.70;;;2.00;;
37907;SDS011;23740;51.550;6.846;2023-09-19T01:35:28;6.85;;;1.95;;
37907;SDS011;23740;51.550;6.846;2023-09-19T01:37:56;6.57;;;2.08;;
37907;SDS011;23740;51.550;6.846;2023-09-19T01:40:25;6.70;;;1.90;;
37907;SDS011;23740;51.550;6.846;2023-09-19T01:42:54;6.32;;;2.42;;
37907;SDS011;23740;51.550;6.846;2023-09-19T01:45:26;7.55;;;2.30;;
37907;SDS011;23740;51.550;6.846;2023-09-19T01:48:05;4.90;;;2.03;;
37907;SDS011;23740;51.550;6.846;2023-09-19T01:50:44;4.22;;;1.85;;
37907;SDS011;23740;51.550;6.846;2023-09-19T01:53:17;4.13;;;1.52;;
37907;SDS011;23740;51.550;6.846;2023-09-19T01:55:49;4.45;;;1.55;;
37907;SDS011;23740;51.550;6.846;2023-09-19T01:58:20;6.95;;;2.08;;
37907;SDS011;23740;51.550;6.846;2023-09-19T02:00:50;5.53;;;2.35;;
37907;SDS011;23740;51.550;6.846;2023-09-19T02:03:19;4.82;;;1.67;;
37907;SDS011;23740;51.550;6.846;2023-09-19T02:05:49;5.80;;;1.52;;
37907;SDS011;23740;51.550;6.846;2023-09-19T02:08:18;6.00;;;1.42;;
37907;SDS011;23740;51.550;6.846;2023-09-19T02:10:46;5.40;;;1.42;;
37907;SDS011;23740;51.550;6.846;2023-09-19T02:13:15;5.75;;;1.75;;
37907;SDS011;23740;51.550;6.846;2023-09-19T02:15:45;4.78;;;1.65;;
37907;SDS011;23740;51.550;6.846;2023-09-19T02:18:15;5.55;;;1.58;;
37907;SDS011;23740;51.550;6.846;2023-09-19T02:20:43;3.60;;;0.93;;
37907;SDS011;23740;51.550;6.846;2023-09-19T02:23:12;4.93;;;1.38;;
37907;SDS011;23740;51.550;6.846;2023-09-19T02:25:40;5.43;;;1.13;;
37907;SDS011;23740;51.550;6.846;2023-09-19T02:28:10;3.53;;;1.40;;
37907;SDS011;23740;51.550;6.846;2023-09-19T02:30:38;4.50;;;1.48;;
37907;SDS011;23740;51.550;6.846;2023-09-19T02:33:06;5.10;;;1.10;;
37907;SDS011;23740;51.550;6.846;2023-09-19T02:35:36;3.20;;;1.15;;
37907;SDS011;23740;51.550;6.846;2023-09-19T02:38:04;5.75;;;1.20;;
37907;SDS011;23740;51.550;6.846;2023-09-19T02:40:33;2.53;;;1.05;;
37907;SDS011;23740;51.550;6.846;2023-09-19T02:43:02;5.63;;;1.27;;
37907;SDS011;23740;51.550;6.846;2023-09-19T02:45:31;5.32;;;1.90;;
37907;SDS011;23740;51.550;6.846;2023-09-19T02:47:59;5.20;;;1.63;;
37907;SDS011;23740;51.550;6.846;2023-09-19T02:50:29;3.05;;;1.08;;
37907;SDS011;23740;51.550;6.846;2023-09-19T02:52:58;6.53;;;1.38;;
37907;SDS011;23740;51.550;6.846;2023-09-19T02:55:26;5.28;;;1.30;;
37907;SDS011;23740;51.550;6.846;2023-09-19T02:57:54;5.40;;;1.67;;
37907;SDS011;23740;51.550;6.846;2023-09-19T03:00:23;5.53;;;1.35;;
37907;SDS011;23740;51.550;6.846;2023-09-19T03:02:53;2.95;;;1.52;;
37907;SDS011;23740;51.550;6.846;2023-09-19T03:05:22;4.22;;;1.20;;
37907;SDS011;23740;51.550;6.846;2023-09-19T03:07:51;4.95;;;1.95;;
37907;SDS011;23740;51.550;6.846;2023-09-19T03:10:20;7.75;;;2.00;;
37907;SDS011;23740;51.550;6.846;2023-09-19T03:12:48;5.90;;;1.50;;
37907;SDS011;23740;51.550;6.846;2023-09-19T03:15:17;5.47;;;1.95;;
37907;SDS011;23740;51.550;6.846;2023-09-19T03:17:45;4.28;;;1.67;;
37907;SDS011;23740;51.550;6.846;2023-09-19T03:20:15;4.82;;;1.30;;
37907;SDS011;23740;51.550;6.846;2023-09-19T03:22:44;4.30;;;1.98;;
37907;SDS011;23740;51.550;6.846;2023-09-19T03:25:12;6.63;;;2.13;;
37907;SDS011;23740;51.550;6.846;2023-09-19T03:27:42;5.88;;;1.25;;
37907;SDS011;23740;51.550;6.846;2023-09-19T03:30:10;6.43;;;2.45;;
37907;SDS011;23740;51.550;6.846;2023-09-19T03:32:43;7.05;;;1.65;;
37907;SDS011;23740;51.550;6.846;2023-09-19T03:35:12;4.07;;;1.35;;
37907;SDS011;23740;51.550;6.846;2023-09-19T03:37:41;5.38;;;1.83;;
37907;SDS011;23740;51.550;6.846;2023-09-19T03:40:09;2.97;;;1.10;;
37907;SDS011;23740;51.550;6.846;2023-09-19T03:42:38;5.97;;;1.60;;
37907;SDS011;23740;51.550;6.846;2023-09-19T03:45:08;5.90;;;1.60;;
37907;SDS011;23740;51.550;6.846;2023-09-19T03:47:38;3.80;;;1.90;;
37907;SDS011;23740;51.550;6.846;2023-09-19T03:50:07;2.72;;;1.70;;
37907;SDS011;23740;51.550;6.846;2023-09-19T03:52:37;6.68;;;1.60;;
37907;SDS011;23740;51.550;6.846;2023-09-19T03:55:05;5.38;;;1.70;;
37907;SDS011;23740;51.550;6.846;2023-09-19T03:57:36;6.07;;;1.50;;
37907;SDS011;23740;51.550;6.846;2023-09-19T04:00:04;5.68;;;1.52;;
37907;SDS011;23740;51.550;6.846;2023-09-19T04:02:39;6.45;;;1.60;;
37907;SDS011;23740;51.550;6.846;2023-09-19T04:05:07;2.85;;;1.25;;
37907;SDS011;23740;51.550;6.846;2023-09-19T04:07:36;4.53;;;1.60;;
37907;SDS011;23740;51.550;6.846;2023-09-19T04:10:04;7.10;;;1.92;;
37907;SDS011;23740;51.550;6.846;2023-09-19T04:12:35;4.40;;;1.50;;
37907;SDS011;23740;51.550;6.846;2023-09-19T04:15:03;6.30;;;1.20;;
37907;SDS011;23740;51.550;6.846;2023-09-19T04:17:31;4.20;;;1.27;;
37907;SDS011;23740;51.550;6.846;2023-09-19T04:20:01;4.05;;;1.35;;
37907;SDS011;23740;51.550;6.846;2023-09-19T04:22:33;4.78;;;1.33;;
37907;SDS011;23740;51.550;6.846;2023-09-19T04:25:01;7.30;;;1.58;;
37907;SDS011;23740;51.550;6.846;2023-09-19T04:27:31;7.70;;;1.30;;
37907;SDS011;23740;51.550;6.846;2023-09-19T04:29:59;5.57;;;1.42;;
37907;SDS011;23740;51.550;6.846;2023-09-19T04:32:35;3.67;;;0.95;;
37907;SDS011;23740;51.550;6.846;2023-09-19T04:35:06;3.92;;;1.63;;
37907;SDS011;23740;51.550;6.846;2023-09-19T04:37:38;3.22;;;1.33;;
37907;SDS011;23740;51.550;6.846;2023-09-19T04:40:07;5.28;;;1.30;;
37907;SDS011;23740;51.550;6.846;2023-09-19T04:42:40;4.47;;;1.15;;
37907;SDS011;23740;51.550;6.846;2023-09-19T04:45:08;2.78;;;1.33;;
37907;SDS011;23740;51.550;6.846;2023-09-19T04:47:37;3.88;;;1.30;;
37907;SDS011;23740;51.550;6.846;2023-09-19T04:50:08;3.65;;;1.00;;
37907;SDS011;23740;51.550;6.846;2023-09-19T04:52:40;4.13;;;1.33;;
37907;SDS011;23740;51.550;6.846;2023-09-19T04:55:11;2.65;;;1.23;;
37907;SDS011;23740;51.550;6.846;2023-09-19T04:57:43;4.68;;;1.63;;
37907;SDS011;23740;51.550;6.846;2023-09-19T05:00:12;3.75;;;1.40;;
37907;SDS011;23740;51.550;6.846;2023-09-19T05:02:41;3.13;;;1.10;;
37907;SDS011;23740;51.550;6.846;2023-09-19T05:05:10;4.10;;;1.58;;
37907;SDS011;23740;51.550;6.846;2023-09-19T05:07:40;4.10;;;1.15;;
37907;SDS011;23740;51.550;6.846;2023-09-19T05:10:09;4.35;;;1.00;;
37907;SDS011;23740;51.550;6.846;2023-09-19T05:12:38;4.68;;;1.30;;
37907;SDS011;23740;51.550;6.846;2023-09-19T05:15:08;2.42;;;1.10;;
37907;SDS011;23740;51.550;6.846;2023-09-19T05:17:36;5.63;;;1.30;;
37907;SDS011;23740;51.550;6.846;2023-09-19T05:20:05;6.30;;;1.65;;
37907;SDS011;23740;51.550;6.846;2023-09-19T05:22:44;4.22;;;1.42;;
37907;SDS011;23740;51.550;6.846;2023-09-19T05:25:13;8.70;;;1.85;;
37907;SDS011;23740;51.550;6.846;2023-09-19T05:27:45;4.80;;;1.70;;
37907;SDS011;23740;51.550;6.846;2023-09-19T05:30:13;5.65;;;2.15;;
37907;SDS011;23740;51.550;6.846;2023-09-19T05:32:42;2.90;;;1.27;;
37907;SDS011;23740;51.550;6.846;2023-09-19T05:35:10;4.07;;;1.38;;
37907;SDS011;23740;51.550;6.846;2023-09-19T05:37:39;6.75;;;1.83;;
37907;SDS011;23740;51.550;6.846;2023-09-19T05:40:09;5.40;;;2.35;;
37907;SDS011;23740;51.550;6.846;2023-09-19T05:42:38;6.28;;;1.60;;
37907;SDS011;23740;51.550;6.846;2023-09-19T05:45:08;5.72;;;1.80;;
37907;SDS011;23740;51.550;6.846;2023-09-19T05:47:38;5.32;;;1.75;;
37907;SDS011;23740;51.550;6.846;2023-09-19T05:50:07;10.02;;;2.03;;
37907;SDS011;23740;51.550;6.846;2023-09-19T05:52:36;4.95;;;1.70;;
37907;SDS011;23740;51.550;6.846;2023-09-19T05:55:04;10.85;;;2.13;;
37907;SDS011;23740;51.550;6.846;2023-09-19T05:57:35;6.75;;;1.65;;
37907;SDS011;23740;51.550;6.846;2023-09-19T06:00:03;4.78;;;1.77;;
37907;SDS011;23740;51.550;6.846;2023-09-19T06:02:35;6.90;;;2.17;;
37907;SDS011;23740;51.550;6.846;2023-09-19T06:05:04;7.03;;;2.10;;
37907;SDS011;23740;51.550;6.846;2023-09-19T06:07:39;3.45;;;1.45;;
37907;SDS011;23740;51.550;6.846;2023-09-19T06:10:07;6.55;;;2.13;;
37907;SDS011;23740;51.550;6.846;2023-09-19T06:12:39;5.32;;;2.22;;
37907;SDS011;23740;51.550;6.846;2023-09-19T06:15:07;5.70;;;1.95;;
37907;SDS011;23740;51.550;6.846;2023-09-19T06:17:39;6.63;;;1.80;;
37907;SDS011;23740;51.550;6.846;2023-09-19T06:20:07;3.13;;;1.20;;
37907;SDS011;23740;51.550;6.846;2023-09-19T06:22:39;7.22;;;1.85;;
37907;SDS011;23740;51.550;6.846;2023-09-19T06:25:09;5.40;;;1.23;;
37907;SDS011;23740;51.550;6.846;2023-09-19T06:27:39;5.00;;;1.63;;
37907;SDS011;23740;51.550;6.846;2023-09-19T06:30:09;5.35;;;1.55;;
37907;SDS011;23740;51.550;6.846;2023-09-19T06:32:37;7.03;;;1.70;;
37907;SDS011;23740;51.550;6.846;2023-09-19T06:35:06;5.28;;;1.60;;
37907;SDS011;23740;51.550;6.846;2023-09-19T06:37:37;5.95;;;1.83;;
37907;SDS011;23740;51.550;6.846;2023-09-19T06:40:07;8.73;;;1.90;;
37907;SDS011;23740;51.550;6.846;2023-09-19T06:42:41;6.80;;;1.50;;
37907;SDS011;23740;51.550;6.846;2023-09-19T06:45:11;4.90;;;1.65;;
37907;SDS011;23740;51.550;6.846;2023-09-19T06:47:40;4.53;;;1.33;;
37907;SDS011;23740;51.550;6.846;2023-09-19T06:50:09;6.10;;;1.50;;
37907;SDS011;23740;51.550;6.846;2023-09-19T06:52:40;6.93;;;2.03;;
37907;SDS011;23740;51.550;6.846;2023-09-19T06:55:12;7.65;;;1.65;;
37907;SDS011;23740;51.550;6.846;2023-09-19T06:57:43;4.88;;;1.38;;
37907;SDS011;23740;51.550;6.846;2023-09-19T07:00:12;3.55;;;1.42;;
37907;SDS011;23740;51.550;6.846;2023-09-19T07:02:45;5.55;;;1.75;;
37907;SDS011;23740;51.550;6.846;2023-09-19T07:05:21;7.40;;;1.80;;
37907;SDS011;23740;51.550;6.846;2023-09-19T07:07:49;7.95;;;2.33;;
37907;SDS011;23740;51.550;6.846;2023-09-19T07:10:16;6.53;;;1.98;;
37907;SDS011;23740;51.550;6.846;2023-09-19T07:12:48;5.20;;;1.42;;
37907;SDS011;23740;51.550;6.846;2023-09-19T07:15:22;4.55;;;1.45;;
37907;SDS011;23740;51.550;6.846;2023-09-19T07:17:51;5.13;;;1.67;;
37907;SDS011;23740;51.550;6.846;2023-09-19T07:20:20;6.95;;;1.80;;
37907;SDS011;23740;51.550;6.846;2023-09-19T07:22:48;7.35;;;1.45;;
37907;SDS011;23740;51.550;6.846;2023-09-19T07:25:17;5.60;;;1.42;;
37907;SDS011;23740;51.550;6.846;2023-09-19T07:27:45;3.30;;;1.55;;
37907;SDS011;23740;51.550;6.846;2023-09-19T07:30:14;3.67;;;1.05;;
37907;SDS011;23740;51.550;6.846;2023-09-19T07:32:42;2.97;;;1.23;;
37907;SDS011;23740;51.550;6.846;2023-09-19T07:35:10;6.72;;;1.65;;
37907;SDS011;23740;51.550;6.846;2023-09-19T07:37:39;5.78;;;1.20;;
37907;SDS011;23740;51.550;6.846;2023-09-19T07:40:07;7.07;;;1.30;;
37907;SDS011;23740;51.550;6.846;2023-09-19T07:42:36;4.43;;;1.25;;
37907;SDS011;23740;51.550;6.846;2023-09-19T07:45:07;4.88;;;1.20;;
37907;SDS011;23740;51.550;6.846;2023-09-19T07:47:37;4.68;;;1.73;;
37907;SDS011;23740;51.550;6.846;2023-09-19T07:50:05;4.35;;;1.60;;
37907;SDS011;23740;51.550;6.846;2023-09-19T07:52:34;4.60;;;1.80;;
37907;SDS011;23740;51.550;6.846;2023-09-19T07:55:04;5.75;;;1.40;;
37907;SDS011;23740;51.550;6.846;2023-09-19T07:57:35;6.05;;;1.42;;
37907;SDS011;23740;51.550;6.846;2023-09-19T08:00:04;6.38;;;2.00;;
37907;SDS011;23740;51.550;6.846;2023-09-19T08:02:34;5.22;;;1.05;;
37907;SDS011;23740;51.550;6.846;2023-09-19T08:05:06;9.25;;;1.73;;
37907;SDS011;23740;51.550;6.846;2023-09-19T08:07:36;4.15;;;1.38;;
37907;SDS011;23740;51.550;6.846;2023-09-19T08:10:05;5.82;;;1.65;;
37907;SDS011;23740;51.550;6.846;2023-09-19T08:12:39;4.43;;;1.45;;
37907;SDS011;23740;51.550;6.846;2023-09-19T08:15:13;6.88;;;1.73;;
37907;SDS011;23740;51.550;6.846;2023-09-19T08:17:42;5.75;;;2.40;;
37907;SDS011;23740;51.550;6.846;2023-09-19T08:20:12;3.95;;;1.58;;
37907;SDS011;23740;51.550;6.846;2023-09-19T08:22:43;5.50;;;1.60;;
37907;SDS011;23740;51.550;6.846;2023-09-19T08:25:14;4.82;;;1.83;;
37907;SDS011;23740;51.550;6.846;2023-09-19T08:27:44;10.52;;;1.45;;
37907;SDS011;23740;51.550;6.846;2023-09-19T08:30:14;4.07;;;1.55;;
37907;SDS011;23740;51.550;6.846;2023-09-19T08:32:42;5.72;;;1.35;;
37907;SDS011;23740;51.550;6.846;2023-09-19T08:35:12;5.28;;;1.13;;
37907;SDS011;23740;51.550;6.846;2023-09-19T08:37:41;4.32;;;1.60;;
37907;SDS011;23740;51.550;6.846;2023-09-19T08:40:11;2.67;;;1.60;;
37907;SDS011;23740;51.550;6.846;2023-09-19T08:42:49;4.80;;;1.35;;
37907;SDS011;23740;51.550;6.846;2023-09-19T08:45:17;4.38;;;1.25;;
37907;SDS011;23740;51.550;6.846;2023-09-19T08:47:46;4.93;;;1.58;;
37907;SDS011;23740;51.550;6.846;2023-09-19T08:50:18;3.88;;;1.35;;
37907;SDS011;23740;51.550;6.846;2023-09-19T08:52:47;5.80;;;1.42;;
37907;SDS011;23740;51.550;6.846;2023-09-19T08:55:20;3.40;;;1.55;;
37907;SDS011;23740;51.550;6.846;2023-09-19T08:57:55;5.07;;;1.40;;
37907;SDS011;23740;51.550;6.846;2023-09-19T09:00:28;3.53;;;1.00;;
37907;SDS011;23740;51.550;6.846;2023-09-19T09:02:56;5.20;;;1.73;;
37907;SDS011;23740;51.550;6.846;2023-09-19T09:05:26;4.15;;;1.45;;
37907;SDS011;23740;51.550;6.846;2023-09-19T09:07:56;5.55;;;1.60;;
37907;SDS011;23740;51.550;6.846;2023-09-19T09:10:24;3.92;;;1.38;;
37907;SDS011;23740;51.550;6.846;2023-09-19T09:12:53;5.60;;;1.70;;
37907;SDS011;23740;51.550;6.846;2023-09-19T09:15:21;3.08;;;1.23;;
37907;SDS011;23740;51.550;6.846;2023-09-19T09:17:51;5.43;;;1.30;;
37907;SDS011;23740;51.550;6.846;2023-09-19T09:20:20;5.25;;;1.63;;
37907;SDS011;23740;51.550;6.846;2023-09-19T09:22:52;5.13;;;1.75;;
37907;SDS011;23740;51.550;6.846;2023-09-19T09:25:21;5.47;;;1.35;;
37907;SDS011;23740;51.550;6.846;2023-09-19T09:28:00;3.03;;;1.25;;
37907;SDS011;23740;51.550;6.846;2023-09-19T09:30:34;2.08;;;1.20;;
37907;SDS011;23740;51.550;6.846;2023-09-19T09:33:09;3.75;;;1.63;;
37907;SDS011;23740;51.550;6.846;2023-09-19T09:35:46;5.97;;;1.50;;
37907;SDS011;23740;51.550;6.846;2023-09-19T09:38:23;6.97;;;1.23;;
37907;SDS011;23740;51.550;6.846;2023-09-19T09:40:58;3.53;;;1.17;;
37907;SDS011;23740;51.550;6.846;2023-09-19T09:43:33;7.15;;;1.55;;
37907;SDS011;23740;51.550;6.846;2023-09-19T09:46:15;4.38;;;1.45;;
37907;SDS011;23740;51.550;6.846;2023-09-19T09:49:03;5.55;;;1.55;;
37907;SDS011;23740;51.550;6.846;2023-09-19T09:51:48;4.25;;;2.20;;
37907;SDS011;23740;51.550;6.846;2023-09-19T09:57:01;3.40;;;1.33;;
37907;SDS011;23740;51.550;6.846;2023-09-19T09:59:43;7.80;;;1.67;;
37907;SDS011;23740;51.550;6.846;2023-09-19T10:02:14;3.40;;;1.60;;
37907;SDS011;23740;51.550;6.846;2023-09-19T10:04:51;4.72;;;1.40;;
37907;SDS011;23740;51.550;6.846;2023-09-19T10:07:26;4.70;;;1.52;;
37907;SDS011;23740;51.550;6.846;2023-09-19T10:10:00;2.38;;;1.05;;
37907;SDS011;23740;51.550;6.846;2023-09-19T10:12:38;6.65;;;1.80;;
37907;SDS011;23740;51.550;6.846;2023-09-19T10:15:19;3.75;;;1.40;;
37907;SDS011;23740;51.550;6.846;2023-09-19T10:17:47;4.25;;;1.63;;
37907;SDS011;23740;51.550;6.846;2023-09-19T10:20:16;3.63;;;1.33;;
37907;SDS011;23740;51.550;6.846;2023-09-19T10:23:00;3.03;;;1.27;;
37907;SDS011;23740;51.550;6.846;2023-09-19T10:25:31;5.28;;;1.70;;
37907;SDS011;23740;51.550;6.846;2023-09-19T10:28:01;3.58;;;1.40;;
37907;SDS011;23740;51.550;6.846;2023-09-19T10:30:31;5.95;;;1.73;;
37907;SDS011;23740;51.550;6.846;2023-09-19T10:33:01;4.80;;;1.80;;
37907;SDS011;23740;51.550;6.846;2023-09-19T10:35:30;3.53;;;1.42;;
37907;SDS011;23740;51.550;6.846;2023-09-19T10:38:00;3.85;;;1.52;;
37907;SDS011;23740;51.550;6.846;2023-09-19T10:40:32;4.05;;;1.63;;
37907;SDS011;23740;51.550;6.846;2023-09-19T10:43:01;4.60;;;2.00;;
37907;SDS011;23740;51.550;6.846;2023-09-19T10:45:32;4.97;;;1.73;;
37907;SDS011;23740;51.550;6.846;2023-09-19T10:48:01;3.28;;;1.10;;
37907;SDS011;23740;51.550;6.846;2023-09-19T10:50:35;3.80;;;1.58;;
37907;SDS011;23740;51.550;6.846;2023-09-19T10:53:12;2.25;;;1.13;;
37907;SDS011;23740;51.550;6.846;2023-09-19T10:55:47;4.35;;;1.15;;
37907;SDS011;23740;51.550;6.846;2023-09-19T10:58:27;3.97;;;1.25;;
37907;SDS011;23740;51.550;6.846;2023-09-19T11:00:56;3.42;;;1.45;;
37907;SDS011;23740;51.550;6.846;2023-09-19T11:03:28;4.60;;;1.52;;
37907;SDS011;23740;51.550;6.846;2023-09-19T11:06:01;5.10;;;1.38;;
37907;SDS011;23740;51.550;6.846;2023-09-19T11:08:52;4.72;;;1.30;;
37907;SDS011;23740;51.550;6.846;2023-09-19T11:14:30;6.70;;;1.67;;
37907;SDS011;23740;51.550;6.846;2023-09-19T11:20:23;3.47;;;1.30;;
37907;SDS011;23740;51.550;6.846;2023-09-19T11:23:17;3.08;;;1.35;;
37907;SDS011;23740;51.550;6.846;2023-09-19T11:25:45;4.10;;;1.20;;
37907;SDS011;23740;51.550;6.846;2023-09-19T11:28:29;3.25;;;1.50;;
37907;SDS011;23740;51.550;6.846;2023-09-19T11:30:59;2.78;;;1.50;;
37907;SDS011;23740;51.550;6.846;2023-09-19T11:40:29;2.70;;;1.35;;
37907;SDS011;23740;51.550;6.846;2023-09-19T11:42:57;3.78;;;1.35;;
37907;SDS011;23740;51.550;6.846;2023-09-19T11:48:35;4.95;;;1.52;;
37907;SDS011;23740;51.550;6.846;2023-09-19T11:53:56;3.28;;;2.17;;
37907;SDS011;23740;51.550;6.846;2023-09-19T11:56:26;5.18;;;1.42;;
37907;SDS011;23740;51.550;6.846;2023-09-19T11:58:55;3.85;;;1.15;;
37907;SDS011;23740;51.550;6.846;2023-09-19T12:01:28;2.92;;;1.08;;
37907;SDS011;23740;51.550;6.846;2023-09-19T12:03:59;4.00;;;1.75;;
37907;SDS011;23740;51.550;6.846;2023-09-19T12:06:29;3.42;;;1.10;;
37907;SDS011;23740;51.550;6.846;2023-09-19T12:08:58;4.40;;;1.17;;
37907;SDS011;23740;51.550;6.846;2023-09-19T12:11:28;2.13;;;1.02;;
37907;SDS011;23740;51.550;6.846;2023-09-19T12:14:00;4.43;;;1.50;;
37907;SDS011;23740;51.550;6.846;2023-09-19T12:16:30;4.00;;;2.05;;
37907;SDS011;23740;51.550;6.846;2023-09-19T12:21:53;2.00;;;1.15;;
37907;SDS011;23740;51.550;6.846;2023-09-19T12:24:23;4.90;;;1.60;;
37907;SDS011;23740;51.550;6.846;2023-09-19T12:26:53;4.72;;;1.30;;
37907;SDS011;23740;51.550;6.846;2023-09-19T12:29:23;4.22;;;1.08;;
37907;SDS011;23740;51.550;6.846;2023-09-19T12:31:53;2.88;;;1.00;;
37907;SDS011;23740;51.550;6.846;2023-09-19T12:34:25;4.15;;;1.70;;
37907;SDS011;23740;51.550;6.846;2023-09-19T12:37:05;2.97;;;0.93;;
37907;SDS011;23740;51.550;6.846;2023-09-19T12:39:41;2.83;;;1.33;;
37907;SDS011;23740;51.550;6.846;2023-09-19T12:42:10;3.97;;;1.20;;
37907;SDS011;23740;51.550;6.846;2023-09-19T12:44:41;4.82;;;1.60;;
37907;SDS011;23740;51.550;6.846;2023-09-19T12:47:16;4.68;;;1.15;;
37907;SDS011;23740;51.550;6.846;2023-09-19T12:50:05;3.58;;;1.33;;
37907;SDS011;23740;51.550;6.846;2023-09-19T12:52:41;4.57;;;1.10;;
37907;SDS011;23740;51.550;6.846;2023-09-19T12:55:21;2.60;;;0.88;;
37907;SDS011;23740;51.550;6.846;2023-09-19T12:58:03;2.65;;;1.10;;
37907;SDS011;23740;51.550;6.846;2023-09-19T13:00:36;2.40;;;1.13;;
37907;SDS011;23740;51.550;6.846;2023-09-19T13:03:15;1.92;;;1.02;;
37907;SDS011;23740;51.550;6.846;2023-09-19T13:05:49;1.80;;;0.98;;
37907;SDS011;23740;51.550;6.846;2023-09-19T13:08:18;3.33;;;0.93;;
37907;SDS011;23740;51.550;6.846;2023-09-19T13:11:05;4.82;;;1.55;;
37907;SDS011;23740;51.550;6.846;2023-09-19T13:13:37;3.15;;;1.10;;
37907;SDS011;23740;51.550;6.846;2023-09-19T13:16:07;2.17;;;1.10;;
37907;SDS011;23740;51.550;6.846;2023-09-19T13:18:44;4.43;;;1.55;;
37907;SDS011;23740;51.550;6.846;2023-09-19T13:21:17;4.75;;;1.45;;
37907;SDS011;23740;51.550;6.846;2023-09-19T13:23:55;3.53;;;1.00;;
37907;SDS011;23740;51.550;6.846;2023-09-19T13:26:25;3.72;;;1.05;;
37907;SDS011;23740;51.550;6.846;2023-09-19T13:28:54;2.85;;;1.35;;
37907;SDS011;23740;51.550;6.846;2023-09-19T13:31:22;3.72;;;1.27;;
37907;SDS011;23740;51.550;6.846;2023-09-19T13:33:53;1.83;;;0.90;;
37907;SDS011;23740;51.550;6.846;2023-09-19T13:36:21;1.88;;;0.68;;
37907;SDS011;23740;51.550;6.846;2023-09-19T13:38:52;2.75;;;0.75;;
37907;SDS011;23740;51.550;6.846;2023-09-19T13:41:20;2.17;;;0.70;;
37907;SDS011;23740;51.550;6.846;2023-09-19T13:43:48;3.58;;;1.05;;
37907;SDS011;23740;51.550;6.846;2023-09-19T13:46:15;3.33;;;1.15;;
37907;SDS011;23740;51.550;6.846;2023-09-19T13:48:53;2.25;;;0.77;;
37907;SDS011;23740;51.550;6.846;2023-09-19T13:51:21;1.75;;;0.93;;
37907;SDS011;23740;51.550;6.846;2023-09-19T13:53:50;1.77;;;1.05;;
37907;SDS011;23740;51.550;6.846;2023-09-19T13:56:17;2.13;;;0.80;;
37907;SDS011;23740;51.550;6.846;2023-09-19T13:58:45;2.08;;;0.70;;
37907;SDS011;23740;51.550;6.846;2023-09-19T14:01:13;2.88;;;1.17;;
37907;SDS011;23740;51.550;6.846;2023-09-19T14:03:41;1.45;;;0.65;;
37907;SDS011;23740;51.550;6.846;2023-09-19T14:06:14;1.60;;;0.82;;
37907;SDS011;23740;51.550;6.846;2023-09-19T14:08:42;1.85;;;0.57;;
37907;SDS011;23740;51.550;6.846;2023-09-19T14:11:10;1.15;;;0.60;;
37907;SDS011;23740;51.550;6.846;2023-09-19T14:13:40;1.50;;;0.85;;
37907;SDS011;23740;51.550;6.846;2023-09-19T14:16:13;2.53;;;1.33;;
37907;SDS011;23740;51.550;6.846;2023-09-19T14:18:41;1.25;;;0.70;;
37907;SDS011;23740;51.550;6.846;2023-09-19T14:21:08;2.05;;;0.75;;
37907;SDS011;23740;51.550;6.846;2023-09-19T14:23:38;1.65;;;0.90;;
37907;SDS011;23740;51.550;6.846;2023-09-19T14:26:07;1.95;;;0.70;;
37907;SDS011;23740;51.550;6.846;2023-09-19T14:28:35;1.48;;;1.38;;
37907;SDS011;23740;51.550;6.846;2023-09-19T14:31:06;1.52;;;0.73;;
37907;SDS011;23740;51.550;6.846;2023-09-19T14:33:35;1.50;;;0.82;;
37907;SDS011;23740;51.550;6.846;2023-09-19T14:36:04;1.75;;;0.85;;
37907;SDS011;23740;51.550;6.846;2023-09-19T14:38:35;1.98;;;0.77;;
37907;SDS011;23740;51.550;6.846;2023-09-19T14:41:06;1.92;;;0.90;;
37907;SDS011;23740;51.550;6.846;2023-09-19T14:43:35;1.35;;;0.68;;
37907;SDS011;23740;51.550;6.846;2023-09-19T14:46:03;1.63;;;0.57;;
37907;SDS011;23740;51.550;6.846;2023-09-19T14:48:31;2.95;;;0.80;;
37907;SDS011;23740;51.550;6.846;2023-09-19T14:51:01;2.67;;;1.13;;
37907;SDS011;23740;51.550;6.846;2023-09-19T14:53:30;2.30;;;0.65;;
37907;SDS011;23740;51.550;6.846;2023-09-19T14:55:59;1.35;;;0.65;;
37907;SDS011;23740;51.550;6.846;2023-09-19T14:58:31;1.60;;;0.52;;
37907;SDS011;23740;51.550;6.846;2023-09-19T15:01:03;1.85;;;0.63;;
37907;SDS011;23740;51.550;6.846;2023-09-19T15:03:33;5.35;;;0.80;;
37907;SDS011;23740;51.550;6.846;2023-09-19T15:06:02;0.50;;;0.47;;
37907;SDS011;23740;51.550;6.846;2023-09-19T15:08:34;1.80;;;0.60;;
37907;SDS011;23740;51.550;6.846;2023-09-19T15:11:05;1.35;;;0.60;;
37907;SDS011;23740;51.550;6.846;2023-09-19T15:13:35;0.73;;;0.65;;
37907;SDS011;23740;51.550;6.846;2023-09-19T15:16:04;2.75;;;1.08;;
37907;SDS011;23740;51.550;6.846;2023-09-19T15:18:38;2.35;;;0.57;;
37907;SDS011;23740;51.550;6.846;2023-09-19T15:21:08;1.40;;;0.60;;
37907;SDS011;23740;51.550;6.846;2023-09-19T15:23:37;2.33;;;0.80;;
37907;SDS011;23740;51.550;6.846;2023-09-19T15:26:07;2.70;;;0.85;;
37907;SDS011;23740;51.550;6.846;2023-09-19T15:28:37;1.75;;;0.40;;
37907;SDS011;23740;51.550;6.846;2023-09-19T15:31:07;0.57;;;0.50;;
37907;SDS011;23740;51.550;6.846;2023-09-19T15:33:40;0.90;;;0.52;;
37907;SDS011;23740;51.550;6.846;2023-09-19T15:36:09;1.15;;;0.80;;